createdAt,value
2023-05-14T00:01:39.310Z,12.80
2023-05-14T00:04:42.545Z,14.25
2023-05-14T00:07:47.563Z,14.02
2023-05-14T00:10:51.008Z,14.63
2023-05-14T00:13:54.516Z,14.88
2023-05-14T00:16:58.229Z,13.88
2023-05-14T00:20:01.322Z,14.68
2023-05-14T00:23:06.609Z,12.75
2023-05-14T00:26:09.726Z,13.55
2023-05-14T00:29:13.581Z,13.65
2023-05-14T00:32:16.925Z,11.45
2023-05-14T00:35:21.337Z,13.73
2023-05-14T00:38:27.732Z,14.10
2023-05-14T00:41:30.840Z,14.93
2023-05-14T00:44:34.040Z,14.48
2023-05-14T00:47:39.227Z,14.75
2023-05-14T00:50:43.907Z,14.18
2023-05-14T00:53:48.782Z,14.77
2023-05-14T00:56:52.489Z,13.75
2023-05-14T00:59:56.365Z,14.23
2023-05-14T01:03:01.482Z,14.57
2023-05-14T01:06:13.292Z,15.05
2023-05-14T01:09:23.246Z,15.85
2023-05-14T01:12:34.519Z,13.90
2023-05-14T01:15:41.322Z,14.35
2023-05-14T01:18:47.171Z,14.90
2023-05-14T01:21:51.792Z,16.63
2023-05-14T01:24:54.965Z,15.23
2023-05-14T01:28:04.912Z,15.80
2023-05-14T01:31:17.389Z,16.17
2023-05-14T01:34:23.294Z,15.32
2023-05-14T01:37:30.056Z,15.75
2023-05-14T01:40:34.691Z,15.43
2023-05-14T01:43:39.357Z,14.27
2023-05-14T01:46:42.583Z,14.88
2023-05-14T01:49:45.814Z,15.95
2023-05-14T01:52:53.185Z,14.52
2023-05-14T01:55:57.381Z,15.82
2023-05-14T01:59:00.476Z,14.85
2023-05-14T02:02:03.659Z,14.88
2023-05-14T02:05:07.676Z,14.85
2023-05-14T02:08:12.177Z,13.80
2023-05-14T02:11:15.441Z,14.57
2023-05-14T02:14:18.654Z,14.05
2023-05-14T02:17:22.065Z,12.50
2023-05-14T02:20:25.457Z,14.18
2023-05-14T02:23:40.549Z,14.57
2023-05-14T02:26:44.631Z,14.20
2023-05-14T02:29:47.864Z,14.30
2023-05-14T02:32:51.578Z,14.45
2023-05-14T02:35:54.987Z,14.40
2023-05-14T02:39:00.875Z,15.18
2023-05-14T02:42:04.059Z,13.85
2023-05-14T02:45:08.139Z,14.68
2023-05-14T02:48:11.328Z,14.27
2023-05-14T02:51:14.407Z,14.45
2023-05-14T02:54:18.888Z,14.77
2023-05-14T02:57:22.395Z,14.77
2023-05-14T03:00:25.836Z,19.77
2023-05-14T03:03:30.464Z,19.88
2023-05-14T03:06:33.920Z,18.80
2023-05-14T03:09:38.595Z,20.15
2023-05-14T03:12:41.882Z,18.70
2023-05-14T03:15:45.254Z,19.00
2023-05-14T03:18:48.754Z,19.52
2023-05-14T03:21:52.034Z,20.27
2023-05-14T03:24:56.578Z,18.63
2023-05-14T03:27:59.698Z,19.42
2023-05-14T03:34:39.965Z,17.85
2023-05-14T03:37:43.615Z,18.48
2023-05-14T03:40:47.155Z,18.40
2023-05-14T03:43:50.325Z,19.33
2023-05-14T03:46:53.404Z,18.67
2023-05-14T03:49:58.242Z,18.48
2023-05-14T03:53:01.435Z,18.75
2023-05-14T03:56:06.462Z,18.55
2023-05-14T03:59:10.238Z,18.88
2023-05-14T04:02:13.592Z,15.40
2023-05-14T04:05:18.078Z,14.93
2023-05-14T04:08:21.993Z,14.48
2023-05-14T04:11:26.150Z,14.70
2023-05-14T04:14:29.315Z,14.80
2023-05-14T04:17:34.511Z,14.93
2023-05-14T04:20:40.464Z,15.63
2023-05-14T04:23:43.567Z,14.23
2023-05-14T04:26:46.722Z,15.45
2023-05-14T04:29:49.898Z,14.60
2023-05-14T04:32:53.240Z,13.63
2023-05-14T04:35:57.768Z,13.40
2023-05-14T04:39:00.897Z,13.93
2023-05-14T04:42:04.114Z,14.27
2023-05-14T04:45:08.753Z,14.88
2023-05-14T04:48:12.195Z,15.18
2023-05-14T04:51:16.802Z,13.57
2023-05-14T04:54:19.947Z,13.52
2023-05-14T04:57:23.249Z,14.65
2023-05-14T05:00:27.118Z,14.27
2023-05-14T05:03:31.139Z,13.48
2023-05-14T05:06:35.603Z,13.10
2023-05-14T05:09:38.748Z,13.07
2023-05-14T05:12:42.240Z,10.05
2023-05-14T05:15:45.832Z,10.63
2023-05-14T05:18:49.122Z,10.43
2023-05-14T05:21:53.754Z,10.35
2023-05-14T05:24:56.908Z,9.00
2023-05-14T05:28:00.023Z,7.90
2023-05-14T05:31:03.215Z,8.85
2023-05-14T05:34:06.501Z,8.05
2023-05-14T05:37:12.747Z,8.00
2023-05-14T05:40:15.952Z,8.55
2023-05-14T05:43:19.380Z,8.43
2023-05-14T05:46:22.595Z,8.60
2023-05-14T05:49:26.037Z,7.68
2023-05-14T05:52:30.689Z,7.82
2023-05-14T05:55:33.848Z,7.85
2023-05-14T05:58:37.095Z,7.70
2023-05-14T06:01:40.729Z,7.55
2023-05-14T06:04:43.869Z,7.47
2023-05-14T06:07:48.648Z,7.45
2023-05-14T06:10:51.925Z,7.28
2023-05-14T06:13:55.222Z,7.40
2023-05-14T06:16:58.690Z,7.15
2023-05-14T06:20:02.022Z,7.18
2023-05-14T06:23:07.741Z,7.28
2023-05-14T06:26:10.895Z,6.30
2023-05-14T06:29:14.099Z,6.90
2023-05-14T06:32:17.583Z,7.15
2023-05-14T06:35:20.867Z,6.68
2023-05-14T06:38:25.703Z,7.18
2023-05-14T06:41:29.580Z,6.85
2023-05-14T06:44:33.064Z,6.90
2023-05-14T06:47:36.316Z,6.90
2023-05-14T06:50:39.465Z,6.60
2023-05-14T06:53:43.979Z,6.72
2023-05-14T06:56:47.186Z,6.80
2023-05-14T06:59:50.392Z,6.80
2023-05-14T07:02:53.719Z,6.50
2023-05-14T07:05:56.956Z,6.28
2023-05-14T07:09:02.974Z,6.53
2023-05-14T07:12:07.196Z,6.28
2023-05-14T07:15:11.893Z,6.05
2023-05-14T07:18:15.116Z,6.57
2023-05-14T07:21:18.377Z,6.25
2023-05-14T07:24:23.518Z,6.53
2023-05-14T07:27:26.672Z,6.22
2023-05-14T07:30:29.769Z,6.05
2023-05-14T07:33:33.044Z,5.90
2023-05-14T07:36:36.208Z,5.93
2023-05-14T07:39:41.671Z,6.35
2023-05-14T07:42:44.786Z,5.97
2023-05-14T07:45:48.012Z,7.05
2023-05-14T07:48:51.257Z,6.32
2023-05-14T07:51:54.460Z,5.85
2023-05-14T07:54:59.939Z,5.70
2023-05-14T07:58:03.284Z,6.70
2023-05-14T08:01:09.074Z,6.15
2023-05-14T08:04:12.620Z,6.15
2023-05-14T08:07:15.832Z,5.80
2023-05-14T08:10:20.491Z,5.63
2023-05-14T08:13:23.980Z,6.10
2023-05-14T08:16:27.328Z,5.85
2023-05-14T08:19:30.541Z,6.20
2023-05-14T08:22:33.794Z,5.90
2023-05-14T08:25:38.341Z,6.25
2023-05-14T08:28:41.498Z,6.07
2023-05-14T08:31:44.781Z,5.68
2023-05-14T08:34:47.932Z,5.53
2023-05-14T08:37:52.163Z,5.78
2023-05-14T08:40:58.917Z,5.60
2023-05-14T08:44:09.201Z,5.82
2023-05-14T08:47:13.436Z,6.05
2023-05-14T08:50:17.053Z,5.93
2023-05-14T08:53:20.205Z,5.88
2023-05-14T08:56:26.561Z,5.88
2023-05-14T08:59:29.716Z,5.60
2023-05-14T09:02:33.435Z,5.70
2023-05-14T09:05:36.972Z,5.80
2023-05-14T09:08:40.174Z,5.45
2023-05-14T09:11:47.830Z,4.97
2023-05-14T09:14:51.644Z,6.07
2023-05-14T09:17:55.042Z,5.60
2023-05-14T09:20:58.813Z,5.50
2023-05-14T09:24:02.369Z,6.32
2023-05-14T09:27:08.039Z,6.05
2023-05-14T09:30:12.808Z,6.18
2023-05-14T09:34:39.539Z,5.93
2023-05-14T09:37:43.768Z,5.90
2023-05-14T09:40:47.510Z,5.60
2023-05-14T09:43:52.344Z,5.70
2023-05-14T09:46:55.966Z,5.68
2023-05-14T09:50:00.671Z,5.90
2023-05-14T09:53:04.116Z,6.30
2023-05-14T09:56:07.331Z,5.85
2023-05-14T09:59:10.952Z,5.60
2023-05-14T10:02:22.748Z,6.10
2023-05-14T10:05:28.790Z,6.05
2023-05-14T10:08:35.654Z,5.47
2023-05-14T10:11:43.311Z,6.05
2023-05-14T10:14:53.182Z,5.47
2023-05-14T10:17:59.771Z,5.40
2023-05-14T10:21:06.530Z,5.25
2023-05-14T10:24:11.001Z,5.50
2023-05-14T10:27:15.270Z,5.38
2023-05-14T10:30:22.914Z,4.90
2023-05-14T10:33:26.276Z,5.13
2023-05-14T10:36:31.275Z,5.30
2023-05-14T10:39:48.365Z,4.95
2023-05-14T10:42:51.810Z,4.88
2023-05-14T10:45:55.207Z,4.90
2023-05-14T10:48:58.456Z,4.78
2023-05-14T10:52:09.300Z,5.78
2023-05-14T10:55:15.391Z,4.63
2023-05-14T10:58:19.086Z,5.15
2023-05-14T11:01:25.214Z,4.68
2023-05-14T11:04:29.218Z,5.50
2023-05-14T11:07:35.439Z,5.10
2023-05-14T11:10:40.338Z,5.00
2023-05-14T11:13:43.863Z,4.88
2023-05-14T11:16:48.143Z,4.88
2023-05-14T11:19:51.398Z,5.28
2023-05-14T11:22:55.888Z,5.65
2023-05-14T11:25:59.050Z,5.38
2023-05-14T11:29:02.380Z,4.82
2023-05-14T11:32:07.545Z,5.82
2023-05-14T11:35:11.101Z,4.00
2023-05-14T11:38:20.220Z,4.05
2023-05-14T11:41:23.792Z,4.88
2023-05-14T11:44:27.173Z,4.10
2023-05-14T11:47:31.500Z,4.57
2023-05-14T11:50:37.497Z,4.40
2023-05-14T11:53:42.112Z,4.50
2023-05-14T11:56:51.952Z,4.35
2023-05-14T11:59:57.895Z,5.05
2023-05-14T12:03:01.523Z,4.35
2023-05-14T12:06:08.298Z,4.40
2023-05-14T12:09:17.496Z,4.95
2023-05-14T12:12:21.990Z,4.07
2023-05-14T12:15:26.709Z,4.35
2023-05-14T12:18:31.841Z,4.60
2023-05-14T12:21:36.515Z,4.07
2023-05-14T12:24:41.206Z,3.60
2023-05-14T12:27:46.078Z,4.65
2023-05-14T12:30:56.891Z,4.07
2023-05-14T12:34:00.869Z,4.38
2023-05-14T12:37:04.959Z,5.45
2023-05-14T12:40:10.366Z,4.10
2023-05-14T12:43:13.563Z,3.22
2023-05-14T12:46:17.017Z,4.43
2023-05-14T12:49:20.605Z,3.83
2023-05-14T12:52:36.796Z,4.20
2023-05-14T12:55:42.869Z,3.80
2023-05-14T12:58:46.637Z,3.95
2023-05-14T13:01:50.075Z,4.05
2023-05-14T13:04:53.205Z,3.90
2023-05-14T13:08:00.641Z,4.00
2023-05-14T13:11:05.229Z,3.70
2023-05-14T13:14:10.466Z,3.95
2023-05-14T13:17:13.926Z,3.90
2023-05-14T13:20:17.792Z,4.20
2023-05-14T13:23:20.928Z,4.63
2023-05-14T13:26:28.162Z,4.28
2023-05-14T13:29:31.574Z,3.50
2023-05-14T13:32:34.759Z,4.10
2023-05-14T13:35:38.068Z,3.40
2023-05-14T13:38:41.261Z,3.70
2023-05-14T13:41:45.700Z,4.07
2023-05-14T13:44:48.990Z,4.20
2023-05-14T13:47:52.179Z,4.07
2023-05-14T13:50:55.436Z,3.97
2023-05-14T13:53:58.942Z,4.22
2023-05-14T13:57:03.350Z,3.65
2023-05-14T14:00:07.970Z,4.15
2023-05-14T14:03:11.389Z,4.03
2023-05-14T14:06:14.606Z,3.33
2023-05-14T14:09:17.740Z,3.75
2023-05-14T14:12:22.478Z,3.50
2023-05-14T14:15:25.870Z,3.22
2023-05-14T14:18:29.205Z,3.88
2023-05-14T14:21:32.733Z,3.95
2023-05-14T14:24:35.957Z,3.97
2023-05-14T14:27:40.926Z,3.20
2023-05-14T14:30:44.673Z,3.30
2023-05-14T14:33:48.167Z,3.50
2023-05-14T14:36:51.410Z,3.33
2023-05-14T14:39:54.928Z,3.63
2023-05-14T14:42:59.403Z,4.20
2023-05-14T14:46:02.744Z,3.92
2023-05-14T14:49:06.016Z,3.30
2023-05-14T14:52:09.909Z,2.90
2023-05-14T14:55:13.069Z,3.13
2023-05-14T14:58:19.082Z,3.63
2023-05-14T15:01:22.840Z,3.63
2023-05-14T15:04:26.029Z,3.65
2023-05-14T15:07:32.752Z,2.92
2023-05-14T15:10:37.797Z,3.70
2023-05-14T15:13:43.003Z,3.80
2023-05-14T15:16:46.774Z,3.15
2023-05-14T15:19:51.482Z,3.70
2023-05-14T15:22:55.108Z,3.75
2023-05-14T15:25:58.280Z,4.03
2023-05-14T15:29:04.564Z,3.80
2023-05-14T15:34:39.426Z,5.22
2023-05-14T15:37:43.727Z,4.07
2023-05-14T15:40:46.876Z,4.80
2023-05-14T15:43:50.609Z,4.00
2023-05-14T15:46:53.952Z,4.18
2023-05-14T15:49:58.559Z,3.70
2023-05-14T15:53:01.883Z,3.80
2023-05-14T15:56:05.326Z,5.35
2023-05-14T15:59:10.606Z,4.72
2023-05-14T16:02:14.442Z,4.03
2023-05-14T16:05:19.010Z,4.22
2023-05-14T16:08:22.179Z,5.10
2023-05-14T16:11:25.452Z,4.85
2023-05-14T16:14:28.589Z,4.78
2023-05-14T16:17:32.695Z,4.70
2023-05-14T16:20:37.318Z,4.45
2023-05-14T16:23:40.493Z,4.30
2023-05-14T16:26:43.623Z,4.80
2023-05-14T16:29:46.791Z,4.82
2023-05-14T16:32:50.198Z,4.10
2023-05-14T16:35:54.957Z,4.68
2023-05-14T16:39:07.130Z,4.20
2023-05-14T16:42:10.717Z,3.90
2023-05-14T16:45:13.884Z,4.30
2023-05-14T16:48:17.128Z,4.03
2023-05-14T16:51:21.625Z,3.63
2023-05-14T16:54:24.888Z,4.07
2023-05-14T16:57:28.012Z,4.32
2023-05-14T17:00:31.565Z,4.70
2023-05-14T17:03:34.750Z,4.55
2023-05-14T17:06:39.272Z,4.80
2023-05-14T17:09:42.839Z,4.40
2023-05-14T17:12:46.139Z,4.10
2023-05-14T17:15:49.261Z,4.15
2023-05-14T17:18:53.024Z,4.40
2023-05-14T17:21:57.958Z,4.20
2023-05-14T17:25:01.579Z,4.80
2023-05-14T17:28:05.544Z,4.53
2023-05-14T17:31:08.707Z,4.15
2023-05-14T17:34:11.854Z,4.90
2023-05-14T17:37:16.616Z,4.88
2023-05-14T17:40:19.735Z,4.50
2023-05-14T17:43:22.996Z,4.10
2023-05-14T17:46:29.097Z,4.88
2023-05-14T17:49:32.315Z,4.45
2023-05-14T17:52:37.685Z,4.93
2023-05-14T17:55:43.520Z,5.32
2023-05-14T17:58:47.741Z,5.25
2023-05-14T18:01:50.842Z,5.57
2023-05-14T18:04:54.042Z,5.10
2023-05-14T18:07:59.097Z,4.70
2023-05-14T18:11:02.210Z,5.18
2023-05-14T18:14:10.326Z,5.03
2023-05-14T18:17:13.693Z,5.78
2023-05-14T18:20:16.885Z,5.30
2023-05-14T18:23:21.429Z,4.47
2023-05-14T18:26:24.600Z,4.35
2023-05-14T18:29:27.858Z,4.30
2023-05-14T18:32:31.753Z,4.32
2023-05-14T18:35:35.190Z,4.47
2023-05-14T18:38:40.722Z,4.55
2023-05-14T18:41:43.810Z,4.70
2023-05-14T18:44:46.958Z,4.20
2023-05-14T18:47:50.706Z,4.28
2023-05-14T18:50:53.891Z,4.57
2023-05-14T18:53:58.958Z,4.20
2023-05-14T18:57:02.647Z,4.40
2023-05-14T19:00:06.964Z,4.50
2023-05-14T19:03:10.299Z,4.63
2023-05-14T19:06:13.568Z,4.15
2023-05-14T19:09:21.034Z,4.28
2023-05-14T19:12:24.279Z,3.73
2023-05-14T19:15:27.590Z,3.90
2023-05-14T19:18:30.887Z,3.85
2023-05-14T19:21:34.030Z,4.38
2023-05-14T19:24:38.742Z,4.78
2023-05-14T19:27:41.979Z,4.50
2023-05-14T19:30:45.099Z,4.75
2023-05-14T19:33:48.418Z,4.90
2023-05-14T19:36:51.750Z,5.32
2023-05-14T19:39:56.264Z,6.05
2023-05-14T19:42:59.641Z,5.28
2023-05-14T19:46:03.868Z,5.13
2023-05-14T19:49:07.706Z,5.35
2023-05-14T19:52:11.485Z,4.88
2023-05-14T19:55:16.234Z,5.00
2023-05-14T19:58:19.346Z,4.95
2023-05-14T20:01:22.828Z,5.43
2023-05-14T20:04:26.094Z,5.45
2023-05-14T20:07:29.392Z,5.85
2023-05-14T20:10:33.940Z,5.35
2023-05-14T20:13:37.434Z,5.60
2023-05-14T20:16:41.628Z,5.22
2023-05-14T20:19:44.972Z,5.85
2023-05-14T20:22:48.118Z,6.68
2023-05-14T20:25:53.083Z,5.70
2023-05-14T20:28:56.295Z,5.97
2023-05-14T20:31:59.517Z,5.85
2023-05-14T20:35:02.914Z,5.45
2023-05-14T20:38:07.141Z,5.68
2023-05-14T20:41:12.057Z,6.70
2023-05-14T20:44:15.503Z,7.20
2023-05-14T20:47:21.420Z,6.82
2023-05-14T20:50:26.946Z,6.40
2023-05-14T20:53:30.432Z,6.60
2023-05-14T20:56:36.398Z,7.05
2023-05-14T20:59:39.576Z,6.80
2023-05-14T21:02:42.812Z,7.05
2023-05-14T21:05:46.166Z,6.60
2023-05-14T21:08:49.322Z,6.88
2023-05-14T21:11:53.886Z,6.97
2023-05-14T21:14:57.202Z,7.20
2023-05-14T21:18:01.245Z,6.97
2023-05-14T21:21:05.420Z,6.32
2023-05-14T21:24:09.051Z,6.53
2023-05-14T21:27:14.130Z,6.22
2023-05-14T21:30:17.385Z,6.25
2023-05-14T21:34:39.127Z,5.93
2023-05-14T21:37:42.422Z,5.95
2023-05-14T21:40:45.561Z,5.45
2023-05-14T21:43:48.970Z,6.18
2023-05-14T21:46:52.240Z,5.65
2023-05-14T21:49:56.762Z,5.80
2023-05-14T21:53:00.018Z,5.82
2023-05-14T21:56:03.317Z,5.75
2023-05-14T21:59:11.053Z,5.70
2023-05-14T22:02:14.443Z,5.88
2023-05-14T22:05:19.243Z,5.32
2023-05-14T22:08:25.298Z,5.88
2023-05-14T22:11:28.373Z,5.97
2023-05-14T22:14:31.524Z,5.88
2023-05-14T22:17:35.069Z,6.45
2023-05-14T22:20:39.934Z,6.57
2023-05-14T22:23:43.069Z,6.13
2023-05-14T22:26:46.182Z,6.45
2023-05-14T22:29:49.276Z,6.60
2023-05-14T22:32:52.372Z,6.72
2023-05-14T22:35:56.943Z,6.00
2023-05-14T22:39:00.921Z,5.80
2023-05-14T22:42:04.393Z,6.75
2023-05-14T22:45:08.767Z,6.45
2023-05-14T22:48:11.993Z,6.25
2023-05-14T22:51:16.617Z,6.35
2023-05-14T22:54:19.742Z,6.35
2023-05-14T22:57:22.977Z,6.20
2023-05-14T23:00:26.164Z,6.63
2023-05-14T23:03:29.630Z,6.13
2023-05-14T23:06:34.154Z,6.45
2023-05-14T23:09:37.431Z,6.25
2023-05-14T23:12:40.547Z,6.20
2023-05-14T23:15:44.783Z,6.28
2023-05-14T23:18:48.099Z,6.60
2023-05-14T23:21:52.700Z,6.75
2023-05-14T23:24:55.894Z,6.63
2023-05-14T23:27:59.125Z,7.20
2023-05-14T23:31:02.428Z,7.38
2023-05-14T23:34:05.575Z,6.95
2023-05-14T23:37:10.110Z,6.80
2023-05-14T23:40:13.657Z,7.30
2023-05-14T23:43:17.023Z,7.97
2023-05-14T23:46:20.248Z,7.60
2023-05-14T23:49:23.529Z,7.25
2023-05-14T23:52:28.063Z,7.63
2023-05-14T23:55:31.400Z,7.72
2023-05-14T23:58:34.511Z,7.53
